• Join FlightAware (Why Join?)
  • Login
  • US Flag 
08:04PM EDT


 

Airport Tracker/Info


-or-


 

Live Flight TrackerFlight Track Log ✈ BOE382 ✈ 07-Feb-2013 ✈ KFTW - KPAE

Flight Track Log - Related Links

Times and Time Zones

All times are in EST time to prevent confusion due to time zone crossing. See the BOE382 flight status page for this flight to view local times or setup timezone preferences in your user account.

Time Position Orientation Groundspeed Altitude Reporting Facility
EST Latitude Longitude Course Direction KTS MPH feet Rate Location/Type
10:24AM 32.8047 -97.3575 12° North 162 186 1,800  Level FAA TRACON SMA TRACON (SMA)
10:25AM 32.7470 -97.3540 221° Southwest 231 266 3,900 2,640 Climbing FlightAware
10:25AM 32.7420 -97.3750 254° West 239 275 5,100 3,960 Climbing FlightAware
10:25AM 32.7470 -97.3920 289° West 256 295 5,900 3,180 Climbing FlightAware
10:25AM 32.7610 -97.4050 322° Northwest 281 323 6,700 4,200 Climbing FlightAware
10:26AM 32.7930 -97.4200 338° Northwest 293 337 8,700 4,800 Climbing FlightAware
10:26AM 32.8290 -97.4120 11° North 303 349 10,700 3,240 Climbing FlightAware
10:27AM 32.8940 -97.3950 12° North 357 411 12,500 3,120 Climbing FlightAware
10:28AM 32.9690 -97.3760 12° North 374 430 15,400 3,660 Climbing FlightAware
10:28AM 33.0380 -97.3580 12° North 388 447 17,700 3,480 Climbing FlightAware
10:29AM 33.1130 -97.3380 13° North 399 459 20,100 3,240 Climbing FlightAware
10:30AM 33.1950 -97.3170 12° North 415 478 22,300 3,000 Climbing FlightAware
10:31AM 33.2790 -97.2950 12° North 424 488 24,600 2,820 Climbing FlightAware
10:31AM 33.3530 -97.2760 12° North 435 501 26,300 2,400 Climbing FlightAware
10:32AM 33.4470 -97.2520 12° North 451 519 28,000 2,220 Climbing FlightAware
10:33AM 33.5480 -97.2570 358° North 433 498 29,900 2,220 Climbing FlightAware
10:33AM 33.5820 -97.2860 325° Northwest 419 482 30,600 2,100 Climbing FlightAware
10:34AM 33.6280 -97.3600 307° West 418 481 32,000 1,920 Climbing FlightAware
10:34AM 33.6620 -97.4180 305° West 423 487 33,000 1,560 Climbing FlightAware
10:35AM 33.7210 -97.4960 312° West 444 511 34,000 1,500 Climbing FlightAware
10:36AM 33.7970 -97.5800 317° Northwest 450 518 35,300 1,560 Climbing FlightAware
10:37AM 33.8650 -97.6600 316° Northwest 446 513 36,500 1,500 Climbing FlightAware
10:37AM 33.9220 -97.7310 314° West 446 513 37,500 780 Climbing FlightAware
10:38AM 33.9730 -97.7950 314° West 445 512 37,600 1,260 Climbing FlightAware
10:39AM 34.0410 -97.8810 314° West 444 511 39,300 1,320 Climbing FlightAware
10:40AM 34.1030 -97.9590 314° West 443 510 39,700 240 Climbing FlightAware
10:40AM 34.1620 -98.0360 313° West 443 510 39,700  Level FlightAware
10:41AM 34.2100 -98.0980 313° West 443 510 39,700  Level FlightAware
10:42AM 34.2570 -98.1590 313° West 443 510 39,700  Level FlightAware
10:42AM 34.3050 -98.2210 313° West 443 510 39,700  Level FlightAware
10:43AM 34.3640 -98.2980 313° West 443 510 39,700  Level FlightAware
10:44AM 34.4120 -98.3600 313° West 443 510 39,700 120 Level FlightAware
10:45AM 34.5603 -98.5347 313° West 442 509 40,000 120 Climbing Albuquerque Center
10:46AM 34.6222 -98.6222 311° West 447 514 40,000  Level Fort Worth Center
10:47AM 34.7172 -98.7397 315° West 447 514 40,000  Level Fort Worth Center
10:48AM 34.8036 -98.8500 314° West 447 514 40,000  Level Fort Worth Center
10:49AM 34.8897 -98.9628 313° West 447 514 40,000  Level Fort Worth Center
10:50AM 34.9758 -99.0733 314° West 447 514 40,000  Level Fort Worth Center
10:51AM 35.0619 -99.1839 314° West 447 514 40,000  Level Fort Worth Center
10:52AM 35.1458 -99.2950 313° West 447 514 40,000  Level Fort Worth Center
10:53AM 35.2339 -99.4089 313° West 447 514 40,000  Level Fort Worth Center
10:53AM 35.2675 -99.4494 315° West 449 517 40,000  Level Albuquerque Center
10:54AM 35.3544 -99.5633 313° West 452 520 40,000  Level Albuquerque Center
10:55AM 35.4419 -99.6775 313° West 455 524 40,000  Level Albuquerque Center
10:56AM 35.5283 -99.7922 313° West 455 524 40,000  Level Albuquerque Center
10:57AM 35.6322 -99.9300 313° West 454 522 40,000  Level Albuquerque Center
10:58AM 35.7175 -100.0442 313° West 452 520 40,000  Level Albuquerque Center
10:59AM 35.8039 -100.1583 313° West 452 520 40,000  Level Albuquerque Center
11:00AM 35.8900 -100.2739 313° West 453 521 40,000  Level Albuquerque Center
11:02AM 35.9753 -100.3900 312° West 454 522 40,000  Level Albuquerque Center
11:03AM 36.0611 -100.5067 312° West 454 522 40,000  Level Albuquerque Center
11:04AM 36.1472 -100.6225 313° West 455 524 40,000  Level Albuquerque Center
11:05AM 36.2333 -100.7394 312° West 456 525 40,000  Level Albuquerque Center
11:06AM 36.3364 -100.8775 313° West 454 522 40,000  Level Albuquerque Center
11:07AM 36.4236 -101.0008 311° West 455 524 40,000  Level Kansas City Center
11:08AM 36.5039 -101.1103 312° West 454 522 40,000  Level Kansas City Center
11:09AM 36.5989 -101.2406 312° West 455 524 40,000  Level Albuquerque Center
11:10AM 36.6808 -101.3542 312° West 457 526 40,000  Level Albuquerque Center
11:12AM 36.8297 -101.5636 312° West 456 525 40,000  Level Denver Center
11:12AM 36.8567 -101.5997 313° West 457 526 40,000  Level Albuquerque Center
11:13AM 36.9381 -101.7142 313° West 457 526 40,000  Level Albuquerque Center
11:14AM 37.0331 -101.8481 311° West 459 528 40,000  Level Albuquerque Center
11:15AM 37.1167 -101.9642 311° West 463 533 40,000  Level Albuquerque Center
11:17AM 37.2647 -102.1767 311° West 462 532 40,000  Level Denver Center
11:18AM 37.3735 -102.3310 313° West 466 536 40,000  Level FlightAware ADS-B
11:18AM 37.4162 -102.3920 311° West 467 537 40,000  Level FlightAware ADS-B
11:19AM 37.4594 -102.4540 311° West 467 537 40,000  Level FlightAware ADS-B
11:19AM 37.5063 -102.5210 311° West 467 537 40,000  Level FlightAware ADS-B
11:20AM 37.5512 -102.5860 311° West 468 539 40,000  Level FlightAware ADS-B
11:20AM 37.5939 -102.6470 311° West 468 539 40,000  Level FlightAware ADS-B
11:21AM 37.6371 -102.7090 311° West 468 539 40,000  Level FlightAware ADS-B
11:21AM 37.6799 -102.7720 311° West 468 539 40,000  Level FlightAware ADS-B
11:22AM 37.7230 -102.8340 311° West 466 536 40,000  Level FlightAware ADS-B
11:22AM 37.7655 -102.8960 311° West 464 534 40,000  Level FlightAware ADS-B
11:23AM 37.8094 -102.9600 311° West 465 535 40,000  Level FlightAware ADS-B
11:23AM 37.8517 -103.0210 311° West 465 535 40,000  Level FlightAware ADS-B
11:24AM 37.8965 -103.0870 311° West 464 534 40,000  Level FlightAware ADS-B
11:25AM 37.9401 -103.1510 311° West 465 535 40,000  Level FlightAware ADS-B
11:25AM 37.9825 -103.2130 311° West 466 536 40,000  Level FlightAware ADS-B
11:26AM 38.0257 -103.2760 311° West 469 540 40,000  Level FlightAware ADS-B
11:26AM 38.0688 -103.3400 311° West 468 539 40,000  Level FlightAware ADS-B
11:27AM 38.1120 -103.4040 311° West 468 539 40,000  Level FlightAware ADS-B
11:27AM 38.1548 -103.4670 311° West 469 540 40,000  Level FlightAware ADS-B
11:28AM 38.2007 -103.5350 311° West 469 540 40,000  Level FlightAware ADS-B
11:28AM 38.2435 -103.5990 310° West 467 537 40,000  Level FlightAware ADS-B
11:29AM 38.2862 -103.6620 311° West 464 534 40,000  Level FlightAware ADS-B
11:29AM 38.3337 -103.7330 310° West 465 535 40,000  Level FlightAware ADS-B
11:30AM 38.3757 -103.7960 310° West 465 535 40,000  Level FlightAware ADS-B
11:30AM 38.4177 -103.8590 310° West 463 533 40,000  Level FlightAware ADS-B
11:31AM 38.4589 -103.9210 310° West 459 528 40,000  Level FlightAware ADS-B
11:31AM 38.5001 -103.9820 311° West 458 527 40,000  Level FlightAware ADS-B
11:32AM 38.5414 -104.0450 310° West 460 529 40,000  Level FlightAware ADS-B
11:32AM 38.5828 -104.1070 311° West 463 533 40,000  Level FlightAware ADS-B
11:33AM 38.6257 -104.1720 310° West 466 536 40,000  Level FlightAware ADS-B
11:33AM 38.6683 -104.2370 310° West 468 539 40,000  Level FlightAware ADS-B
11:34AM 38.7107 -104.3010 310° West 468 539 40,000  Level FlightAware ADS-B
11:34AM 38.7530 -104.3660 310° West 468 539 40,000  Level FlightAware ADS-B
11:35AM 38.7996 -104.4360 311° West 464 534 40,000  Level FlightAware ADS-B
11:35AM 38.8455 -104.5060 310° West 462 532 40,000  Level FlightAware ADS-B
11:36AM 38.9015 -104.5920 310° West 458 527 40,000  Level FlightAware ADS-B
11:36AM 38.9272 -104.6320 310° West 457 526 40,000  Level FlightAware ADS-B
11:37AM 38.9689 -104.6960 310° West 456 525 40,000  Level FlightAware ADS-B
11:37AM 39.0127 -104.7630 310° West 459 528 40,000  Level FlightAware ADS-B
11:38AM 39.0540 -104.8270 310° West 460 529 40,000  Level FlightAware ADS-B
11:38AM 39.0967 -104.8930 310° West 460 529 40,000  Level FlightAware ADS-B
11:39AM 39.1379 -104.9570 310° West 460 529 40,000  Level FlightAware ADS-B
11:39AM 39.1795 -105.0220 310° West 462 532 40,000  Level FlightAware ADS-B
11:40AM 39.2211 -105.0860 310° West 463 533 40,000  Level FlightAware ADS-B
11:40AM 39.2622 -105.1510 309° West 464 534 40,000  Level FlightAware ADS-B
11:41AM 39.3052 -105.2180 310° West 464 534 40,000  Level FlightAware ADS-B
11:41AM 39.3467 -105.2830 310° West 465 535 40,000  Level FlightAware ADS-B
11:42AM 39.3881 -105.3480 310° West 466 536 40,000  Level FlightAware ADS-B
11:43AM 39.4318 -105.4170 309° West 465 535 40,000  Level FlightAware ADS-B
11:43AM 39.4740 -105.4830 310° West 466 536 40,000  Level FlightAware ADS-B
11:44AM 39.5152 -105.5480 309° West 469 540 40,000  Level FlightAware ADS-B
11:44AM 39.5566 -105.6140 309° West 469 540 40,000  Level FlightAware ADS-B
11:45AM 39.5987 -105.6800 310° West 469 540 40,000  Level FlightAware ADS-B
11:45AM 39.6395 -105.7450 309° West 469 540 40,000  Level FlightAware ADS-B
11:46AM 39.6837 -105.8160 309° West 467 537 40,000  Level FlightAware ADS-B
11:46AM 39.7257 -105.8830 309° West 464 534 40,000  Level FlightAware ADS-B
11:47AM 39.7660 -105.9470 309° West 460 529 40,000  Level FlightAware ADS-B
11:47AM 39.8064 -106.0120 309° West 458 527 40,000  Level FlightAware ADS-B
11:48AM 39.8500 -106.0820 309° West 458 527 40,000  Level FlightAware ADS-B
11:48AM 39.9050 -106.1700 309° West 459 528 40,000  Level FlightAware ADS-B
11:49AM 39.9736 -106.2810 309° West 459 528 40,000  Level FlightAware ADS-B
11:50AM 40.0215 -106.3590 309° West 459 528 40,000  Level FlightAware ADS-B
11:51AM 40.0820 -106.4610 308° West 460 529 40,000  Level FlightAware
11:51AM 40.1136 -106.5130 308° West 457 526 40,000  Level FlightAware ADS-B
11:51AM 40.1222 -106.5269 302° West 457 526 40,000  Level Salt Lake Center
11:52AM 40.1658 -106.6169 302° West 461 531 40,000  Level Denver Center
11:53AM 40.2283 -106.7428 302° West 460 529 40,000  Level Denver Center
11:54AM 40.3083 -106.9058 303° West 458 527 40,000  Level Denver Center
11:56AM 40.3960 -107.0850 303° West 460 529 40,000  Level FlightAware
11:56AM 40.4640 -107.2260 302° West 460 529 40,000  Level FlightAware
11:57AM 40.5060 -107.3130 302° West 463 533 40,000  Level FlightAware
11:57AM 40.5510 -107.4070 302° West 463 533 40,000  Level FlightAware
11:58AM 40.6020 -107.5130 302° West 461 531 40,000  Level FlightAware
11:59AM 40.6480 -107.6080 303° West 458 527 40,000  Level FlightAware
12:00PM 40.6990 -107.7140 302° West 459 528 40,000  Level FlightAware
12:00PM 40.7430 -107.8070 302° West 460 529 40,000  Level FlightAware
12:01PM 40.7910 -107.9080 302° West 460 529 40,000  Level FlightAware
12:02PM 40.8400 -108.0110 302° West 459 528 40,000  Level FlightAware
12:02PM 40.8820 -108.1010 302° West 459 528 40,000  Level FlightAware
12:03PM 40.9190 -108.1800 302° West 460 529 40,000  Level FlightAware
12:04PM 40.9560 -108.2600 302° West 460 529 40,000  Level FlightAware
12:04PM 40.9930 -108.3430 301° West 460 529 40,000  Level FlightAware
12:05PM 41.0300 -108.4250 301° West 460 529 40,000  Level FlightAware
12:06PM 41.0670 -108.5070 301° West 460 529 40,000  Level FlightAware
12:06PM 41.1050 -108.5890 302° West 460 529 40,000  Level FlightAware
12:07PM 41.1510 -108.6920 301° West 460 529 40,000  Level FlightAware
12:08PM 41.1880 -108.7750 301° West 460 529 40,000  Level FlightAware
12:09PM 41.2981 -108.9969 301° West 451 519 40,000  Level Denver Center
12:10PM 41.3619 -109.1367 301° West 451 519 40,000  Level Denver Center
12:10PM 41.3731 -109.1619 301° West 452 520 40,000  Level Salt Lake Center
12:11PM 41.4361 -109.3044 299° West 456 525 40,000  Level Salt Lake Center
12:12PM 41.5108 -109.4686 299° West 460 529 40,000  Level Salt Lake Center
12:13PM 41.5731 -109.6078 300° West 457 526 40,000  Level Salt Lake Center
12:15PM 41.6880 -109.8620 301° West 448 516 40,000  Level FlightAware
12:15PM 41.7230 -109.9450 299° West 449 517 40,000  Level FlightAware
12:16PM 41.7570 -110.0280 299° West 449 517 40,000  Level FlightAware
12:17PM 41.7910 -110.1110 299° West 449 517 40,000  Level FlightAware
12:17PM 41.8260 -110.1940 300° West 449 517 40,000  Level FlightAware
12:18PM 41.8680 -110.2970 299° West 449 517 40,000  Level FlightAware
12:19PM 41.9030 -110.3800 300° West 449 517 40,000  Level FlightAware
12:19PM 41.9370 -110.4630 299° West 449 517 40,000  Level FlightAware
12:21PM 42.1020 -110.8100 303° West 457 526 40,000  Level FlightAware
12:22PM 42.1460 -110.9120 300° West 458 527 40,000  Level FlightAware
12:22PM 42.1910 -111.0180 300° West 461 531 40,000  Level FlightAware
12:23PM 42.2320 -111.1130 300° West 462 532 40,000  Level FlightAware
12:24PM 42.2750 -111.2140 300° West 462 532 40,000  Level FlightAware
12:24PM 42.3190 -111.3170 300° West 461 531 40,000  Level FlightAware
12:25PM 42.3670 -111.4330 299° West 462 532 40,000  Level FlightAware
12:26PM 42.4230 -111.5660 300° West 465 535 40,000  Level FlightAware
12:27PM 42.4690 -111.6750 300° West 464 534 40,000  Level FlightAware
12:28PM 42.5100 -111.7750 299° West 464 534 40,000  Level FlightAware
12:28PM 42.5450 -111.8620 299° West 464 534 40,000  Level FlightAware
12:28PM 42.5586 -111.8978 300° West 463 533 40,000  Level Salt Lake Center
12:29PM 42.6214 -112.0514 300° West 466 536 40,000  Level Salt Lake Center
12:30PM 42.6850 -112.2039 300° West 466 536 40,000  Level Salt Lake Center
12:31PM 42.7633 -112.3914 300° West 468 539 40,000  Level Salt Lake Center
12:33PM 42.8480 -112.5970 300° West 40,000  Level FlightAware
12:34PM 42.8872 -112.6836 300° West 465 535 40,000  Level Salt Lake Center
12:35PM 42.9781 -112.8428 308° West 476 548 40,000  Level Salt Lake Center
12:36PM 43.0536 -112.9778 307° West 470 541 40,000  Level Salt Lake Center
12:37PM 43.1414 -113.1333 308° West 465 535 40,000  Level Salt Lake Center
12:38PM 43.2189 -113.2719 308° West 471 542 40,000  Level Salt Lake Center
12:39PM 43.3067 -113.4317 307° West 470 541 40,000  Level Salt Lake Center
12:40PM 43.3819 -113.5694 307° West 470 541 40,000  Level Salt Lake Center
12:41PM 43.4700 -113.7303 307° West 471 542 40,000  Level Salt Lake Center
12:42PM 43.5458 -113.8706 307° West 473 544 40,000  Level Salt Lake Center
12:43PM 43.6306 -114.0253 307° West 473 544 40,000  Level Salt Lake Center
12:44PM 43.7053 -114.1653 306° West 473 544 40,000  Level Salt Lake Center
12:45PM 43.7928 -114.3294 306° West 474 545 40,000  Level Salt Lake Center
12:46PM 43.8686 -114.4700 307° West 475 547 40,000  Level Salt Lake Center
12:47PM 43.9550 -114.6342 306° West 473 544 40,000  Level Salt Lake Center
12:48PM 44.0308 -114.7742 307° West 473 544 40,000  Level Salt Lake Center
12:49PM 44.1064 -114.9164 307° West 476 548 40,000  Level Salt Lake Center
12:50PM 44.1922 -115.0836 306° West 476 548 40,000  Level Salt Lake Center
12:51PM 44.2664 -115.2253 306° West 475 547 40,000  Level Salt Lake Center
12:52PM 44.3525 -115.3908 306° West 474 545 40,000  Level Salt Lake Center
12:53PM 44.4256 -115.5331 306° West 473 544 40,000  Level Salt Lake Center
12:54PM 44.5097 -115.6978 306° West 470 541 40,000  Level Salt Lake Center
12:55PM 44.5814 -115.8392 305° West 469 540 40,000  Level Salt Lake Center
12:56PM 44.6650 -116.0039 306° West 470 541 40,000  Level Salt Lake Center
12:57PM 44.7356 -116.1444 305° West 466 536 40,000  Level Salt Lake Center
12:58PM 44.8064 -116.3178 300° West 464 534 40,000  Level Salt Lake Center
12:59PM 44.8622 -116.4731 297° West 465 535 40,000  Level Salt Lake Center
01:00PM 44.9267 -116.6536 297° West 464 534 40,000  Level Salt Lake Center
01:01PM 44.9444 -116.7064 295° West 464 534 40,000  Level Seattle Center
01:02PM 44.9992 -116.8647 296° West 466 536 40,000  Level Seattle Center
01:02PM 45.0447 -116.9942 297° West 467 537 40,000  Level Salt Lake Center
01:03PM 45.0997 -117.1517 296° West 466 536 40,000  Level Salt Lake Center
01:04PM 45.1183 -117.2047 296° West 466 536 40,000  Level Seattle Center
01:04PM 45.1547 -117.3092 296° West 466 536 40,000  Level Salt Lake Center
01:05PM 45.2194 -117.4956 296° West 471 542 40,000  Level Salt Lake Center
01:06PM 45.2344 -117.5411 295° West 472 543 40,000  Level Seattle Center
01:07PM 45.2903 -117.7078 296° West 471 542 40,000  Level Seattle Center
01:08PM 45.3469 -117.8733 296° West 469 540 40,000  Level Seattle Center
01:09PM 45.4019 -118.0403 295° West 469 540 40,000  Level Seattle Center
01:10PM 45.4578 -118.2064 296° West 468 539 40,000  Level Seattle Center
01:11PM 45.5139 -118.3756 295° West 472 543 40,000  Level Seattle Center
01:12PM 45.5686 -118.5422 295° West 469 540 40,000  Level Seattle Center
01:13PM 45.6231 -118.7103 295° West 469 540 40,000  Level Seattle Center
01:14PM 45.6881 -118.9114 295° West 467 537 40,000  Level Seattle Center
01:15PM 45.7700 -119.0561 309° West 474 545 40,000  Level Seattle Center
01:16PM 45.8522 -119.2014 309° West 474 545 40,000  Level Seattle Center
01:17PM 45.9367 -119.3444 310° West 473 544 40,000  Level Seattle Center
01:18PM 46.0217 -119.4894 310° West 475 547 40,000  Level Seattle Center
01:19PM 46.1064 -119.6339 310° West 475 547 40,000  Level Seattle Center
01:20PM 46.1908 -119.7808 310° West 476 548 40,000  Level Seattle Center
01:21PM 46.2764 -119.9308 310° West 482 555 40,000  Level Seattle Center
01:22PM 46.3617 -120.0797 310° West 483 556 40,000  Level Seattle Center
01:23PM 46.4464 -120.2283 310° West 481 554 40,000  Level Seattle Center
01:24PM 46.5308 -120.3781 309° West 481 554 40,000 -360 Level Seattle Center
01:25PM 46.6122 -120.5306 308° West 480 552 39,300 -1,920 Descending Seattle Center
01:26PM 46.6864 -120.6919 304° West 483 556 36,100 -2,640 Descending Seattle Center
01:27PM 46.7750 -120.8803 305° West 472 543 34,000 -5,460 Descending Seattle Center
01:28PM 46.8456 -121.0297 305° West 455 524 25,100 -5,700 Descending Seattle Center
01:29PM 46.9108 -121.1669 305° West 422 486 22,600 -2,460 Descending Seattle Center
01:30PM 46.9758 -121.3050 305° West 416 479 20,100 -2,460 Descending Seattle Center
01:31PM 47.0350 -121.4347 304° West 406 467 17,700 -2,220 Descending Seattle Center
01:32PM 47.0936 -121.5625 304° West 382 440 15,700 -1,800 Descending Seattle Center
01:33PM 47.1217 -121.6211 305° West 339 390 15,100 -900 Descending Seattle Center
01:33PM 47.1447 -121.6703 305° West 323 372 14,800 -900 Descending Seattle Center
01:34PM 47.1731 -121.7328 304° West 294 338 14,200 -1,200 Descending Seattle Center
01:34PM 47.1900 -121.7717 303° West 303 349 13,600 -1,980 Descending Seattle Center
01:35PM 47.2189 -121.8314 305° West 287 330 12,200 -2,220 Descending Seattle Center
01:35PM 47.2356 -121.8681 304° West 293 337 11,400 -2,580 Descending Seattle Center
01:36PM 47.2611 -121.9256 303° West 281 323 9,600 -3,600 Descending Seattle Center
01:36PM 47.2858 -121.9775 305° West 274 315 7,800 -3,060 Descending Seattle Center
01:37PM 47.3094 -122.0100 317° Northwest 269 310 6,500 -1,800 Descending Seattle Center
01:37PM 47.3414 -122.0500 320° Northwest 269 310 6,000 -1,140 Descending Seattle Center
01:38PM 47.3717 -122.0703 336° Northwest 270 311 5,400 -1,020 Descending Seattle Center
01:38PM 47.4094 -122.0922 339° North 267 307 5,000 -480 Descending Seattle Center
01:39PM 47.4347 -122.1075 338° Northwest 269 310 5,000 -300 Level Seattle Center
01:39PM 47.4800 -122.1264 344° North 270 311 4,700 -840 Descending Seattle Center
01:40PM 47.5125 -122.1331 352° North 270 311 4,200 -720 Descending Seattle Center
01:40PM 47.5586 -122.1367 357° North 267 307 4,000 -240 Descending Seattle Center
01:41PM 47.5869 -122.1378 358° North 267 307 4,000  Level Seattle Center
01:41PM 47.6383 -122.1394 359° North 267 307 4,000  Level Seattle Center
01:42PM 47.6617 -122.1422 355° North 267 307 4,000  Level Seattle Center
01:42PM 47.7128 -122.1442 359° North 268 308 4,000  Level Seattle Center
01:43PM 47.7361 -122.1467 356° North 271 312 4,000  Level Seattle Center
01:43PM 47.7878 -122.1486 359° North 270 311 4,000  Level Seattle Center
01:44PM 47.8147 -122.1492 359° North 271 312 4,000 -420 Level Seattle Center
01:44PM 47.8617 -122.1497 360° North 273 314 3,600 -840 Descending Seattle Center
01:45PM 47.8931 -122.1517 358° North 271 312 3,200 -600 Descending Seattle Center
01:45PM 47.9339 -122.1533 358° North 267 307 3,000 -240 Descending Seattle Center
01:46PM 47.9669 -122.1533 360° North 261 300 3,000  Level Seattle Center
01:46PM 48.0053 -122.1558 358° North 261 300 3,000  Level Seattle Center
01:47PM 48.0414 -122.1578 358° North 254 292 3,000  Level Seattle Center
01:47PM 48.0739 -122.1600 357° North 253 291 3,000  Level Seattle Center
01:48PM 48.0908 -122.1864 314° West 211 243 3,000  Level Seattle Center
01:48PM 48.0933 -122.2283 275° West 192 221 3,000  Level Seattle Center
01:49PM 48.0944 -122.2708 272° West 165 190 3,000  Level Seattle Center
01:49PM 48.0800 -122.2842 212° Southwest 170 196 3,000  Level Seattle Center
01:50PM 48.0572 -122.2817 176° South 151 174 3,000 -120 Level Seattle Center
01:50PM 48.0336 -122.2831 182° South 140 161 2,900 -420 Descending Seattle Center
01:51PM 48.0203 -122.2858 188° South 136 157 2,600 -840 Descending Seattle Center
01:51PM 47.9964 -122.2878 183° South 135 155 2,100 -720 Descending Seattle Center
01:52PM 47.9828 -122.2867 177° South 134 154 1,900 -720 Descending Seattle Center
01:52PM 47.9614 -122.2875 181° South 129 148 1,400 -660 Descending Seattle Center
01:53PM 47.9453 -122.2878 181° South 123 142 1,200 -600 Descending Seattle Center
01:53PM 47.9286 -122.2867 177° South 122 140 800 -720 Descending Seattle Center
01:55PM 47.9070 -122.2816 19° North  Level Estimated
02:02PM 47.9070 -122.2816 19° North  Level Estimated